Bayfield, Wisconsin
Current Conditions -  °F | °C
As of 9:53 PM on Thursday 20 Nov 2014 (Local Time) from KASX Reporting Station
Clear Clear  
Wind Chill:   Ceiling: Unl
Heat Index:   Visibility: 10mi
Dew Point: -3°   Wind: 3mph
Humidity: 80%   Direction: 200°SSW
Pressure: 30.19"   Gusts: NA
Location:  46.81°N, 90.82°W
Report Text: KASX 210353Z AUTO 20003KT 10SM CLR M17/M19 A3019 RMK AO2 SLP244 T11671194
Loading
Personal Weather Stations






























Interactive Weather Map New forecast layout! Learn more

10-Day Weather Forecast

Advertisements
Track Severe Weather on mobile